Colebrook, Connecticut
Current Conditions -  °F | °C
As of 9:51 PM on Friday 21 Nov 2014 (Local Time) from KBDL Reporting Station
Clear Clear  
Wind Chill: 26°   Ceiling: Unl
Heat Index: 26°   Visibility: 10mi
Dew Point: 10°   Wind: 0mph
Humidity: 51%   Direction: NA
Pressure: 30.44"   Gusts: NA
Location:  41.99°N, 73.1°W
Report Text: KBDL 220251Z 00000KT 10SM CLR M03/M12 A3044 RMK AO2 SLP310 T10331122 52010
Loading
Personal Weather Stations






























Interactive Weather Map New forecast layout! Learn more

10-Day Weather Forecast

Advertisements
Track Severe Weather on mobile